KPRG

Details ICAO KPRG
Name EDGAR CO
Region United States
Timezone America/Chicago (UTC-5.0)
Plans Departing 2
Arriving 0
Stats Elevation 654 ft / 199 m (AMSL)
Location 39.700018° -87.669632°
Runways 1
Magnetic Variation 3.610° W
Sunrise 2018-05-21 10:32:38 UTC / 2018-05-21 05:32:38 Local
Sunset 2018-05-22 01:04:48 UTC / 2018-05-21 20:04:48 Local
Advertisement - Login to hide

Runways

ID Width Length Bearing (true) Bearing (mag) Surface Threshold Offset Overrun Length
09 75 ft / 23 m 4,490 ft / 1,369 m 89.57° 93.18° Asphalt 0 ft / 0 m 0 ft / 0 m
27 75 ft / 23 m 4,490 ft / 1,369 m 269.58° 273.19° Asphalt 0 ft / 0 m 0 ft / 0 m

Map

Weather


0- 5 10 15 20 25 30 35+ Temperature / ° C

Clouds and Precipitation
Forecast for 2018-05-22 00:00 UTC. Updated 6 hours ago

Ground ~20,000 ft ~40,000 ft Winds

METAR

KPRG 220455Z AUTO 21004KT 10SM CLR 19/19 A3001 RMK AO2 T01870185

TAF

Not found

Frequencies

Recorded 124.17 MHz AWOS 3
Approach 125.45 MHz HULMAN APP/DEP
Unicom 123.00 MHz CTAF/UNICOM
Approach 118.30 MHz HULMAN APP/DEP
Warning: Do not use this data for real-world aviation or navigation. No guarantee of current accuracy is given.